createdAt,value
2017-09-10T12:26:03.043Z,7532
2017-09-10T12:27:03.417Z,6804
2017-09-10T12:28:03.111Z,6132
2017-09-10T12:29:03.039Z,6052
2017-09-10T12:30:03.036Z,6216
2017-09-10T12:31:03.704Z,6156
2017-09-10T12:32:03.032Z,6364
2017-09-10T12:33:03.038Z,6280
2017-09-10T12:34:03.050Z,5948
2017-09-10T12:35:03.352Z,6424
2017-09-10T12:36:03.040Z,7124
2017-09-10T12:37:03.674Z,7720
2017-09-10T12:38:03.022Z,7964
2017-09-10T12:39:03.689Z,7676
2017-09-10T12:40:03.013Z,8032
2017-09-10T12:41:03.356Z,8164
2017-09-10T12:42:03.665Z,8308
2017-09-10T12:43:03.022Z,8276
2017-09-10T12:44:03.334Z,8100
2017-09-10T12:45:03.329Z,8048
2017-09-10T12:46:03.333Z,8192
2017-09-10T12:47:02.995Z,8488
2017-09-10T12:48:03.342Z,8900
2017-09-10T12:49:03.328Z,9772
2017-09-10T12:50:03.331Z,10020
2017-09-10T12:51:03.333Z,10368
2017-09-10T12:52:03.320Z,10840
2017-09-10T12:53:03.008Z,10956
2017-09-10T12:54:03.025Z,11108
2017-09-10T12:55:03.646Z,10652
2017-09-10T12:56:03.196Z,10044
2017-09-10T12:57:03.647Z,9696
2017-09-10T12:58:03.652Z,9480
2017-09-10T12:59:03.633Z,9204
2017-09-10T13:00:02.992Z,8780
2017-09-10T13:01:03.295Z,8652
2017-09-10T13:02:02.966Z,7948
2017-09-10T13:03:03.308Z,7928
2017-09-10T13:04:02.965Z,7752
2017-09-10T13:05:03.307Z,7772
2017-09-10T13:06:03.633Z,7520
2017-09-10T13:07:03.013Z,7304
2017-09-10T13:08:03.293Z,7284
2017-09-10T13:09:02.955Z,6884
2017-09-10T13:10:03.286Z,6180
2017-09-10T13:11:02.956Z,6360
2017-09-10T13:12:02.957Z,6984
2017-09-10T13:13:02.967Z,7740
2017-09-10T13:14:03.273Z,8252
2017-09-10T13:15:03.600Z,8424
2017-09-10T13:16:03.271Z,8580
2017-09-10T13:17:03.264Z,8740
2017-09-10T13:18:03.263Z,9160
2017-09-10T13:19:03.263Z,9248
2017-09-10T13:20:03.289Z,9252
2017-09-10T13:21:03.051Z,9280
2017-09-10T13:22:02.929Z,9032
2017-09-10T13:23:03.254Z,9132
2017-09-10T13:24:03.256Z,9372
2017-09-10T13:25:03.261Z,9660
2017-09-10T13:26:03.249Z,9944
2017-09-10T13:27:03.247Z,10188
2017-09-10T13:28:02.920Z,10212
2017-09-10T13:29:03.255Z,9896
2017-09-10T13:30:03.254Z,9328
2017-09-10T13:31:03.570Z,9128
2017-09-10T13:32:03.279Z,8748
2017-09-10T13:33:03.238Z,8816
2017-09-10T13:34:02.904Z,9144
2017-09-10T13:35:03.232Z,9200
2017-09-10T13:36:03.262Z,9156
2017-09-10T13:37:04.113Z,8956
2017-09-10T13:38:03.568Z,8764
2017-09-10T13:39:03.223Z,8568
2017-09-10T13:40:02.894Z,8252
2017-09-10T13:41:03.547Z,8256
2017-09-10T13:42:03.221Z,8528
2017-09-10T13:43:03.219Z,8972
2017-09-10T13:44:02.887Z,9504
2017-09-10T13:45:03.550Z,9928
2017-09-10T13:46:03.540Z,10156
2017-09-10T13:47:02.895Z,10308
2017-09-10T13:48:03.204Z,10332
2017-09-10T13:49:03.204Z,10484
2017-09-10T13:50:03.530Z,10464
2017-09-10T13:51:03.526Z,9688
2017-09-10T13:52:08.230Z,10116
2017-09-10T13:53:03.197Z,10112
2017-09-10T13:54:03.545Z,10008
2017-09-10T13:55:03.518Z,10028
2017-09-10T13:56:03.195Z,10120
2017-09-10T13:57:03.187Z,10020
2017-09-10T13:58:03.184Z,10068
2017-09-10T13:59:03.538Z,9916
2017-09-10T14:00:03.197Z,9880
2017-09-10T14:01:02.853Z,9868
2017-09-10T14:02:02.865Z,9636
2017-09-10T14:03:02.887Z,9880
2017-09-10T14:04:02.851Z,9664
2017-09-10T14:05:02.844Z,9628
2017-09-10T14:06:02.839Z,9516
2017-09-10T14:07:02.856Z,9324
2017-09-10T14:08:03.510Z,8796
2017-09-10T14:09:03.164Z,8468
2017-09-10T14:10:03.158Z,8220
2017-09-10T14:11:03.153Z,8016
2017-09-10T14:12:02.825Z,8160
2017-09-10T14:13:03.808Z,8244
2017-09-10T14:14:02.820Z,8540
2017-09-10T14:15:02.822Z,8712
2017-09-10T14:16:02.849Z,8696
2017-09-10T14:17:03.140Z,8640
2017-09-10T14:18:02.831Z,8524
2017-09-10T14:19:03.139Z,8204
2017-09-10T14:20:03.150Z,7728
2017-09-10T14:21:02.879Z,6988
2017-09-10T14:22:03.500Z,6412
2017-09-10T14:23:03.783Z,6080
2017-09-10T14:24:02.796Z,5724
2017-09-10T14:25:03.162Z,5532
2017-09-10T14:26:02.806Z,5428
2017-09-10T14:27:03.135Z,5272
2017-09-10T14:28:03.127Z,4880
2017-09-10T14:29:03.114Z,4476
2017-09-10T14:30:02.781Z,4124
2017-09-10T14:31:02.781Z,3832
2017-09-10T14:32:03.115Z,3620
2017-09-10T14:33:02.779Z,3592
2017-09-10T14:34:02.795Z,3572
2017-09-10T14:35:02.770Z,3544
2017-09-10T14:36:02.773Z,3596
2017-09-10T14:37:03.419Z,3584
2017-09-10T14:38:03.096Z,3704
2017-09-10T14:39:03.410Z,3588
2017-09-10T14:40:02.755Z,3408
2017-09-10T14:41:03.409Z,3324
2017-09-10T14:42:02.748Z,3248
2017-09-10T14:43:03.080Z,3436
2017-09-10T14:44:03.730Z,3448
2017-09-10T14:45:03.068Z,3448
2017-09-10T14:46:03.082Z,3400
2017-09-10T14:47:03.056Z,3292
2017-09-10T14:48:03.060Z,3208
2017-09-10T14:49:03.381Z,3052
2017-09-10T14:50:03.050Z,2992
2017-09-10T14:51:03.050Z,2984
2017-09-10T14:52:02.714Z,3140
2017-09-10T14:53:03.401Z,3204
2017-09-10T14:54:03.054Z,3176
2017-09-10T14:55:03.359Z,3144
2017-09-10T14:56:02.702Z,3148
2017-09-10T14:57:03.375Z,3132
2017-09-10T14:58:02.710Z,3064
2017-09-10T14:59:02.700Z,2932
2017-09-10T15:00:03.339Z,2752
2017-09-10T15:01:03.694Z,2676
2017-09-10T15:02:03.009Z,2616
2017-09-10T15:03:03.003Z,2584
2017-09-10T15:04:02.688Z,2548
2017-09-10T15:05:03.330Z,2492
2017-09-10T15:06:02.668Z,2456
2017-09-10T15:07:02.704Z,2408
2017-09-10T15:08:02.659Z,2348
2017-09-10T15:09:02.985Z,2328
2017-09-10T15:10:03.310Z,2328
2017-09-10T15:11:03.318Z,2332
2017-09-10T15:12:02.666Z,2324
2017-09-10T15:13:02.981Z,2316
2017-09-10T15:14:02.984Z,2392
2017-09-10T15:15:02.640Z,2392
2017-09-10T15:16:03.321Z,2400
2017-09-10T15:17:02.965Z,2372
2017-09-10T15:18:03.299Z,2248
2017-09-10T15:19:02.952Z,2232
2017-09-10T15:20:02.945Z,2216
2017-09-10T15:21:02.615Z,2208
2017-09-10T15:22:02.947Z,2192
2017-09-10T15:23:02.938Z,2184
2017-09-10T15:24:03.299Z,2188
2017-09-10T15:25:03.267Z,2180
2017-09-10T15:26:02.933Z,2164
2017-09-10T15:27:02.603Z,2140
2017-09-10T15:28:03.259Z,2116
2017-09-10T15:29:02.604Z,2100
2017-09-10T15:30:02.913Z,2092
2017-09-10T15:31:02.910Z,2084
2017-09-10T15:32:03.243Z,2076
2017-09-10T15:33:03.229Z,2068
2017-09-10T15:34:02.590Z,2068
2017-09-10T15:35:02.562Z,2004
2017-09-10T15:36:02.889Z,2056
2017-09-10T15:37:02.886Z,2044
2017-09-10T15:38:02.556Z,2040
2017-09-10T15:39:03.552Z,2044
2017-09-10T15:40:02.575Z,2068
2017-09-10T15:41:03.228Z,2128
2017-09-10T15:42:02.864Z,2536
2017-09-10T15:43:02.538Z,3116
2017-09-10T15:44:02.529Z,3528
2017-09-10T15:45:02.525Z,3696
2017-09-10T15:46:02.872Z,3464
2017-09-10T15:47:02.537Z,2904
2017-09-10T15:48:02.512Z,2560
2017-09-10T15:49:02.842Z,2328
2017-09-10T15:50:02.511Z,2180
2017-09-10T15:51:02.831Z,2088
2017-09-10T15:52:02.826Z,2036
2017-09-10T15:53:02.514Z,2024
2017-09-10T15:54:02.489Z,2016
2017-09-10T15:55:02.810Z,1904
2017-09-10T15:56:02.808Z,1856
2017-09-10T15:57:02.806Z,1852
2017-09-10T15:58:02.495Z,1932
2017-09-10T15:59:02.795Z,1932
2017-09-10T16:00:02.464Z,1920
2017-09-10T16:01:02.460Z,1808
2017-09-10T16:02:02.454Z,1764
2017-09-10T16:03:03.156Z,1788
2017-09-10T16:04:02.451Z,1740
2017-09-10T16:05:02.438Z,1808
2017-09-10T16:06:02.786Z,1788
2017-09-10T16:07:02.795Z,1724
2017-09-10T16:08:02.759Z,1692
2017-09-10T16:09:02.762Z,1668
2017-09-10T16:10:03.078Z,1652
2017-09-10T16:11:02.745Z,1664
2017-09-10T16:12:02.761Z,1724
2017-09-10T16:13:02.733Z,1724
2017-09-10T16:14:02.748Z,1640
2017-09-10T16:15:02.734Z,1704
2017-09-10T16:16:02.393Z,1712
2017-09-10T16:17:03.045Z,1716
2017-09-10T16:18:02.720Z,1724
2017-09-10T16:19:02.380Z,1724
2017-09-10T16:20:03.361Z,1716
2017-09-10T16:21:02.380Z,1708
2017-09-10T16:22:02.372Z,1700
2017-09-10T16:23:03.019Z,1688
2017-09-10T16:24:03.012Z,1676
2017-09-10T16:25:02.357Z,1656
2017-09-10T16:26:02.346Z,1636
2017-09-10T16:27:02.681Z,1616
2017-09-10T16:28:03.022Z,1508
2017-09-10T16:29:02.677Z,1480
2017-09-10T16:30:02.325Z,1456
2017-09-10T16:31:02.651Z,1436
2017-09-10T16:32:02.643Z,1408
2017-09-10T16:33:02.645Z,1420
2017-09-10T16:34:02.978Z,1456
2017-09-10T16:35:02.646Z,1456
2017-09-10T16:36:02.298Z,1396
2017-09-10T16:37:02.291Z,1376
2017-09-10T16:38:02.301Z,1392
2017-09-10T16:39:02.611Z,1372
2017-09-10T16:40:02.622Z,1376
2017-09-10T16:41:02.610Z,1364
2017-09-10T16:42:02.594Z,1344
2017-09-10T16:43:02.927Z,1324
2017-09-10T16:44:02.594Z,1272
2017-09-10T16:45:02.252Z,1228
2017-09-10T16:46:02.586Z,1212
2017-09-10T16:47:02.239Z,1196
2017-09-10T16:48:02.902Z,1176
2017-09-10T16:49:02.567Z,1200
2017-09-10T16:50:02.560Z,1188
2017-09-10T16:51:03.244Z,1124
2017-09-10T16:52:02.224Z,1096
2017-09-10T16:53:02.536Z,1088
2017-09-10T16:54:02.205Z,1060
2017-09-10T16:55:02.861Z,1032
2017-09-10T16:56:02.523Z,1016
2017-09-10T16:57:03.195Z,992
2017-09-10T16:58:02.509Z,968
2017-09-10T16:59:02.506Z,956
2017-09-10T17:00:02.173Z,944
2017-09-10T17:01:02.521Z,944
2017-09-10T17:02:02.489Z,928
2017-09-10T17:03:02.177Z,908
2017-09-10T17:04:02.805Z,888
2017-09-10T17:05:02.497Z,868
2017-09-10T17:06:02.152Z,844
2017-09-10T17:07:02.828Z,820
2017-09-10T17:08:02.123Z,796
2017-09-10T17:09:02.452Z,772
2017-09-10T17:10:02.444Z,748
2017-09-10T17:11:02.124Z,724
2017-09-10T17:12:02.760Z,704
2017-09-10T17:13:02.751Z,680
2017-09-10T17:14:02.752Z,656
2017-09-10T17:15:02.773Z,632
2017-09-10T17:16:02.407Z,608
2017-09-10T17:17:02.418Z,584
2017-09-10T17:18:02.091Z,564
2017-09-10T17:19:02.716Z,536
2017-09-10T17:20:02.445Z,512
2017-09-10T17:21:02.047Z,484
2017-09-10T17:22:02.393Z,464
2017-09-10T17:23:02.367Z,440
2017-09-10T17:24:02.365Z,416
2017-09-10T17:25:02.027Z,388
2017-09-10T17:26:02.685Z,360
2017-09-10T17:27:03.020Z,340
2017-09-10T17:28:02.665Z,312
2017-09-10T17:29:02.022Z,292
2017-09-10T17:30:02.323Z,264
2017-09-10T17:31:02.341Z,244
2017-09-10T17:32:02.002Z,220
2017-09-10T17:33:02.678Z,204
2017-09-10T17:34:02.650Z,184
2017-09-10T17:35:01.965Z,164
2017-09-10T17:36:02.315Z,152
2017-09-10T17:37:02.611Z,136
2017-09-10T17:38:01.946Z,124
2017-09-10T17:39:02.643Z,108
2017-09-10T17:40:02.262Z,96
2017-09-10T17:41:02.250Z,80
2017-09-10T17:42:02.903Z,72
2017-09-10T17:43:02.255Z,64
2017-09-10T17:44:01.913Z,56
2017-09-10T17:45:01.900Z,48
2017-09-10T17:46:02.555Z,40
2017-09-10T17:47:02.557Z,36
2017-09-10T17:48:01.881Z,32
2017-09-10T17:49:02.200Z,24
2017-09-10T17:50:01.869Z,20
2017-09-10T17:51:02.185Z,20
2017-09-10T17:52:02.853Z,16
2017-09-10T17:53:01.844Z,12
2017-09-10T17:54:02.167Z,12
2017-09-10T17:55:02.511Z,8
2017-09-10T17:56:02.512Z,8
2017-09-10T17:57:02.485Z,8
2017-09-10T17:58:01.811Z,4
2017-09-10T17:59:02.142Z,8
2017-09-10T18:00:02.481Z,4
2017-09-10T18:01:02.124Z,0
2017-09-10T18:02:02.126Z,4
2017-09-10T18:03:02.429Z,4
2017-09-10T18:04:02.122Z,4
2017-09-10T18:05:02.101Z,0
2017-09-10T18:06:02.089Z,0
2017-09-10T18:07:02.076Z,0
2017-09-10T18:08:02.062Z,0
2017-09-10T18:09:01.749Z,0
2017-09-10T18:10:01.751Z,0
2017-09-10T18:11:02.048Z,0
2017-09-10T18:12:01.711Z,0
2017-09-10T18:13:02.044Z,0
2017-09-10T18:14:01.696Z,0
2017-09-10T18:15:02.070Z,0
2017-09-10T18:16:02.051Z,0
2017-09-10T18:17:02.328Z,0
2017-09-10T18:18:02.008Z,0
2017-09-10T18:19:02.187Z,0
2017-09-10T18:20:01.980Z,0
2017-09-10T18:21:02.311Z,0
2017-09-10T18:22:01.962Z,0
2017-09-10T18:23:02.306Z,0
2017-09-10T18:24:01.952Z,0
2017-09-10T18:25:02.308Z,0
2017-09-10T18:26:01.981Z,0
2017-09-10T18:27:02.260Z,0
2017-09-10T18:28:01.951Z,0
2017-09-10T18:29:01.581Z,0
2017-09-10T18:30:02.252Z,0
2017-09-10T18:31:01.587Z,0
2017-09-10T18:32:01.557Z,0
2017-09-10T18:33:01.891Z,0
2017-09-10T18:34:01.542Z,0
2017-09-10T18:35:01.862Z,0
2017-09-10T18:36:02.530Z,0
2017-09-10T18:37:01.841Z,0
2017-09-10T18:38:01.842Z,0
2017-09-10T18:39:01.827Z,0
2017-09-10T18:40:02.152Z,0
2017-09-10T18:41:02.486Z,0
2017-09-10T18:42:04.657Z,0
2017-09-10T18:43:01.802Z,0
2017-09-10T18:44:01.463Z,0
2017-09-10T18:45:02.111Z,0
2017-09-10T18:46:02.121Z,0
2017-09-10T18:47:01.456Z,0
2017-09-10T18:48:02.087Z,0
2017-09-10T18:49:02.099Z,0
2017-09-10T18:50:01.424Z,0
2017-09-10T18:51:01.731Z,0
2017-09-10T18:52:01.398Z,0
2017-09-10T18:53:01.728Z,0
2017-09-10T18:54:01.711Z,0
2017-09-10T18:55:01.700Z,0
2017-09-10T18:56:01.712Z,0
2017-09-10T18:57:02.012Z,0
2017-09-10T18:58:01.689Z,0
2017-09-10T18:59:01.685Z,0
2017-09-10T19:00:01.686Z,0
2017-09-10T19:01:01.653Z,0
2017-09-10T19:02:01.680Z,0
2017-09-10T19:03:01.306Z,0
2017-09-10T19:04:01.296Z,0
2017-09-10T19:05:01.634Z,0
2017-09-10T19:06:01.609Z,0
2017-09-10T19:07:01.290Z,0
2017-09-10T19:08:01.605Z,0
2017-09-10T19:09:01.914Z,0
2017-09-10T19:10:01.248Z,0
2017-09-10T19:11:01.566Z,0
2017-09-10T19:12:01.560Z,0
2017-09-10T19:13:01.225Z,0
2017-09-10T19:14:01.882Z,0
2017-09-10T19:15:01.256Z,0
2017-09-10T19:16:01.529Z,0
2017-09-10T19:17:01.531Z,0
2017-09-10T19:18:01.182Z,0
2017-09-10T19:19:01.500Z,0
2017-09-10T19:20:01.504Z,0
2017-09-10T19:21:01.841Z,0
2017-09-10T19:22:02.163Z,0
2017-09-10T19:23:01.155Z,0
2017-09-10T19:24:01.162Z,0
2017-09-10T19:25:01.136Z,0
2017-09-10T19:26:01.461Z,0
2017-09-10T19:27:01.131Z,0
2017-09-10T19:28:01.443Z,0
2017-09-10T19:29:01.777Z,0
2017-09-10T19:30:01.760Z,0
2017-09-10T19:31:01.089Z,0
2017-09-10T19:32:01.411Z,0
2017-09-10T19:33:01.406Z,0
2017-09-10T19:34:01.386Z,0
2017-09-10T19:35:01.042Z,0
2017-09-10T19:36:01.716Z,0
2017-09-10T19:37:01.381Z,0
2017-09-10T19:38:01.673Z,0
2017-09-10T19:39:01.690Z,0
2017-09-10T19:40:01.353Z,0
2017-09-10T19:41:01.342Z,0
2017-09-10T19:42:02.001Z,0
2017-09-10T19:43:01.311Z,0
2017-09-10T19:44:00.969Z,0
2017-09-10T19:45:01.299Z,0
2017-09-10T19:46:00.948Z,0
2017-09-10T19:47:01.289Z,0
2017-09-10T19:48:01.594Z,0
2017-09-10T19:49:00.937Z,0
2017-09-10T19:50:00.947Z,0
2017-09-10T19:51:00.902Z,0
2017-09-10T19:52:00.894Z,0
2017-09-10T19:53:01.570Z,0
2017-09-10T19:54:01.210Z,0
2017-09-10T19:55:01.255Z,0
2017-09-10T19:56:00.878Z,0
2017-09-10T19:57:00.868Z,0
2017-09-10T19:58:01.189Z,0
2017-09-10T19:59:01.163Z,0
2017-09-10T20:00:01.160Z,0
2017-09-10T20:01:02.081Z,0
2017-09-10T20:02:01.139Z,0
2017-09-10T20:03:01.456Z,0
2017-09-10T20:04:01.136Z,0
2017-09-10T20:05:00.780Z,0
2017-09-10T20:06:01.100Z,0
2017-09-10T20:07:01.103Z,0
2017-09-10T20:08:00.757Z,0
2017-09-10T20:09:01.405Z,0
2017-09-10T20:10:01.066Z,0
2017-09-10T20:11:01.067Z,0
2017-09-10T20:12:00.730Z,0
2017-09-10T20:13:00.729Z,0
2017-09-10T20:14:01.055Z,0
2017-09-10T20:15:00.695Z,0
2017-09-10T20:16:01.008Z,0
2017-09-10T20:17:01.005Z,0
2017-09-10T20:18:01.029Z,0
2017-09-10T20:19:00.662Z,0
2017-09-10T20:20:01.336Z,0
2017-09-10T20:21:00.646Z,0
2017-09-10T20:22:01.047Z,0
2017-09-10T20:23:01.305Z,0
2017-09-10T20:24:01.268Z,0
2017-09-10T20:25:01.287Z,0
2017-09-10T20:26:00.593Z,0
2017-09-10T20:27:00.934Z,0
2017-09-10T20:28:00.578Z,0
2017-09-10T20:29:01.222Z,0
2017-09-10T20:30:01.214Z,0
2017-09-10T20:31:01.210Z,0
2017-09-10T20:32:00.578Z,0
2017-09-10T20:33:00.866Z,0
2017-09-10T20:34:00.893Z,0
2017-09-10T20:35:00.508Z,0
2017-09-10T20:36:00.508Z,0
2017-09-10T20:37:01.155Z,0
2017-09-10T20:38:01.148Z,0
2017-09-10T20:39:00.801Z,0
2017-09-10T20:40:01.571Z,0
2017-09-10T20:41:00.794Z,0
2017-09-10T20:42:00.445Z,0
2017-09-10T20:43:00.441Z,0
2017-09-10T20:44:01.104Z,0
2017-09-10T20:45:01.091Z,0
2017-09-10T20:46:00.775Z,0
2017-09-10T20:47:01.070Z,0
2017-09-10T20:48:00.727Z,0
2017-09-10T20:49:00.431Z,0
2017-09-10T20:50:00.720Z,0
2017-09-10T20:51:00.695Z,0
2017-09-10T20:52:00.689Z,0
2017-09-10T20:53:01.008Z,0
2017-09-10T20:54:00.680Z,0
2017-09-10T20:55:01.005Z,0
2017-09-10T20:56:00.648Z,0
2017-09-10T20:57:00.989Z,0
2017-09-10T20:58:00.649Z,0
2017-09-10T20:59:00.313Z,0
2017-09-10T21:00:01.335Z,0
2017-09-10T21:01:00.621Z,0
2017-09-10T21:02:00.592Z,0
2017-09-10T21:03:00.388Z,0
2017-09-10T21:04:00.581Z,0
2017-09-10T21:05:00.572Z,0
2017-09-10T21:06:00.561Z,0
2017-09-10T21:07:00.548Z,0
2017-09-10T21:08:00.555Z,0
2017-09-10T21:09:00.532Z,0
2017-09-10T21:10:00.871Z,0
2017-09-10T21:11:00.530Z,0
2017-09-10T21:12:00.530Z,0
2017-09-10T21:13:00.859Z,0
2017-09-10T21:14:00.486Z,0
2017-09-10T21:15:00.475Z,0
2017-09-10T21:16:00.160Z,0
2017-09-10T21:17:00.812Z,0
2017-09-10T21:18:00.807Z,0
2017-09-10T21:19:00.438Z,0
2017-09-10T21:20:00.851Z,0
2017-09-10T21:21:00.745Z,0
2017-09-10T21:22:00.412Z,0
2017-09-10T21:23:00.100Z,0
2017-09-10T21:24:00.780Z,0
2017-09-10T21:25:00.384Z,0
2017-09-10T21:26:00.429Z,0
2017-09-10T21:27:00.367Z,0
2017-09-10T21:28:00.030Z,0
2017-09-10T21:29:00.998Z,0
2017-09-10T21:30:00.341Z,0
2017-09-10T21:31:00.329Z,0
2017-09-10T21:32:00.340Z,0
2017-09-10T21:33:00.313Z,0
2017-09-10T21:34:00.303Z,0
2017-09-10T21:34:59.963Z,0
2017-09-10T21:36:00.628Z,0
2017-09-10T21:36:59.963Z,0
2017-09-10T21:38:00.269Z,0
2017-09-10T21:39:00.254Z,0
2017-09-10T21:39:59.924Z,0
2017-09-10T21:40:59.928Z,0
2017-09-10T21:42:00.250Z,0
2017-09-10T21:43:00.906Z,0
2017-09-10T21:44:00.212Z,0
2017-09-10T21:45:00.227Z,0
2017-09-10T21:46:00.198Z,0
2017-09-10T21:47:00.222Z,0
2017-09-10T21:48:00.189Z,0
2017-09-10T21:49:00.181Z,0
2017-09-10T21:50:00.160Z,0
2017-09-10T21:51:00.153Z,0
2017-09-10T21:52:00.175Z,0
2017-09-10T21:53:00.131Z,0
2017-09-10T21:54:00.114Z,0
2017-09-10T21:54:59.804Z,0
2017-09-10T21:56:00.445Z,0
2017-09-10T21:56:59.764Z,0
2017-09-10T21:57:59.777Z,0
2017-09-10T21:59:00.093Z,0
2017-09-10T21:59:59.735Z,0
2017-09-10T22:01:00.388Z,0
2017-09-10T22:02:00.711Z,0
2017-09-10T22:02:59.707Z,0
2017-09-10T22:03:59.700Z,0
2017-09-10T22:05:00.350Z,0
2017-09-10T22:06:00.013Z,0
2017-09-10T22:07:00.344Z,0
2017-09-10T22:08:00.004Z,0
2017-09-10T22:08:59.654Z,0
2017-09-10T22:10:00.323Z,0
2017-09-10T22:11:00.290Z,0
2017-09-10T22:11:59.638Z,0
2017-09-10T22:13:00.282Z,0
2017-09-10T22:13:59.608Z,0
2017-09-10T22:14:59.931Z,0
2017-09-10T22:15:59.604Z,0
2017-09-10T22:16:59.579Z,0
2017-09-10T22:18:00.254Z,0
2017-09-10T22:18:59.888Z,0
2017-09-10T22:19:59.901Z,0
2017-09-10T22:21:00.225Z,0
2017-09-10T22:22:00.572Z,0
2017-09-10T22:22:59.850Z,0
2017-09-10T22:23:59.845Z,0
2017-09-10T22:25:00.185Z,0
2017-09-10T22:25:59.499Z,0
2017-09-10T22:27:00.169Z,0
2017-09-10T22:27:59.476Z,0
2017-09-10T22:29:00.160Z,0
2017-09-10T22:29:59.798Z,0
2017-09-10T22:30:59.457Z,0
2017-09-10T22:31:59.788Z,0
2017-09-10T22:32:59.783Z,0
2017-09-10T22:34:00.082Z,0
2017-09-10T22:34:59.415Z,0
2017-09-10T22:35:59.750Z,0
2017-09-10T22:36:59.725Z,0
2017-09-10T22:37:59.742Z,0
2017-09-10T22:38:59.705Z,0
2017-09-10T22:40:00.032Z,0
2017-09-10T22:41:00.044Z,0
2017-09-10T22:41:59.684Z,0
2017-09-10T22:42:59.663Z,0
2017-09-10T22:43:59.674Z,0
2017-09-10T22:45:00.008Z,0
2017-09-10T22:45:59.970Z,0
2017-09-10T22:46:59.301Z,0
2017-09-10T22:47:59.294Z,0
2017-09-10T22:48:59.287Z,0
2017-09-10T22:49:59.630Z,0
2017-09-10T22:50:59.927Z,0
2017-09-10T22:51:59.626Z,0
2017-09-10T22:52:59.904Z,0
2017-09-10T22:53:59.709Z,0
2017-09-10T22:54:59.554Z,0
2017-09-10T22:55:59.240Z,0
2017-09-10T22:56:59.541Z,0
2017-09-10T22:57:59.219Z,0
2017-09-10T22:58:59.531Z,0
2017-09-10T22:59:59.528Z,0
2017-09-10T23:00:59.829Z,0
2017-09-10T23:01:59.506Z,0
2017-09-10T23:02:59.480Z,0
2017-09-10T23:03:59.489Z,0
2017-09-10T23:04:59.735Z,0
2017-09-10T23:05:59.474Z,0
2017-09-10T23:06:59.115Z,0
2017-09-10T23:07:59.771Z,0
2017-09-10T23:08:59.754Z,0
2017-09-10T23:09:59.089Z,0
2017-09-10T23:10:59.756Z,0
2017-09-10T23:11:59.397Z,0
2017-09-10T23:12:59.717Z,0
2017-09-10T23:13:59.052Z,0
2017-09-10T23:14:59.372Z,0
2017-09-10T23:15:59.034Z,0
2017-09-10T23:16:59.353Z,0
2017-09-10T23:17:59.012Z,0
2017-09-10T23:18:59.358Z,0
2017-09-10T23:19:59.350Z,0
2017-09-10T23:20:59.319Z,0
2017-09-10T23:21:59.312Z,0
2017-09-10T23:22:59.294Z,0
2017-09-10T23:23:58.957Z,0
2017-09-10T23:24:58.946Z,0
2017-09-10T23:25:59.273Z,0
2017-09-10T23:26:58.940Z,0
2017-09-10T23:27:59.590Z,0
2017-09-10T23:28:58.924Z,0
2017-09-10T23:29:59.256Z,0
2017-09-10T23:30:59.221Z,0
2017-09-10T23:31:59.209Z,0
2017-09-10T23:32:59.217Z,0
2017-09-10T23:33:58.876Z,0
2017-09-10T23:34:59.545Z,0
2017-09-10T23:35:59.194Z,0
2017-09-10T23:36:58.842Z,0
2017-09-10T23:37:58.842Z,0
2017-09-10T23:38:59.358Z,0
2017-09-10T23:39:59.156Z,0
2017-09-10T23:40:59.124Z,0
2017-09-10T23:41:59.454Z,0
2017-09-10T23:42:59.133Z,0
2017-09-10T23:43:59.100Z,0
2017-09-10T23:44:58.777Z,0
2017-09-10T23:45:58.750Z,0
2017-09-10T23:46:58.741Z,0
2017-09-10T23:47:59.403Z,0
2017-09-10T23:48:59.062Z,0
2017-09-10T23:49:59.378Z,0
2017-09-10T23:50:59.388Z,0
2017-09-10T23:51:58.697Z,0
2017-09-10T23:52:59.039Z,0
2017-09-10T23:53:59.006Z,0
2017-09-10T23:54:58.702Z,0
2017-09-10T23:55:58.661Z,0
2017-09-10T23:56:58.985Z,0
2017-09-10T23:57:58.978Z,0
2017-09-10T23:58:59.290Z,0
2017-09-10T23:59:58.948Z,0
